ABR1487 EBLG-EGLL
Flight info
| Callsign | ABR1487 |
|---|---|
| Flight time | 0h 50m |
| Altitude | 30000 |
| Route | BUB L608 LOGAN |
| Aircraft | A306/H-SDE3FGHIRWY/LB1 |
Departure
| Time | 2026-04-30 18:20 |
|---|---|
| Airport | Liège Airport (EBLG) |
Arrival
| Time | 2026-04-30 19:10 |
|---|---|
| Airport | London Heathrow Airport (EGLL) |
| Time | Latitude | Longitude | Altitude | Speed | Heading |
|---|---|---|---|---|---|
| 2026-04-30 17:56 | 50.63986 | 5.45380 | 622 ft | 0 kts | 136° |
| 2026-04-30 18:11 | 50.63987 | 5.45378 | 622 ft | 2 kts | 136° |
| 2026-04-30 18:11 | 50.64051 | 5.45306 | 633 ft | 3 kts | 163° |
| 2026-04-30 18:12 | 50.64054 | 5.45305 | 633 ft | 0 kts | 163° |
| 2026-04-30 18:15 | 50.63946 | 5.45103 | 635 ft | 15 kts | 225° |
| 2026-04-30 18:16 | 50.63805 | 5.44869 | 625 ft | 14 kts | 224° |
| 2026-04-30 18:16 | 50.63671 | 5.44663 | 633 ft | 13 kts | 225° |
| 2026-04-30 18:17 | 50.63607 | 5.44564 | 625 ft | 13 kts | 224° |
| 2026-04-30 18:17 | 50.63546 | 5.44467 | 635 ft | 11 kts | 225° |
| 2026-04-30 18:17 | 50.63389 | 5.44221 | 643 ft | 14 kts | 225° |
| 2026-04-30 18:18 | 50.63335 | 5.44134 | 646 ft | 8 kts | 226° |
| 2026-04-30 18:18 | 50.63279 | 5.44044 | 645 ft | 14 kts | 225° |
| 2026-04-30 18:18 | 50.63200 | 5.43916 | 646 ft | 17 kts | 234° |
| 2026-04-30 18:18 | 50.63237 | 5.43801 | 647 ft | 14 kts | 354° |
| 2026-04-30 18:19 | 50.63337 | 5.43818 | 648 ft | 13 kts | 358° |
| 2026-04-30 18:19 | 50.63382 | 5.43844 | 648 ft | 0 kts | 41° |
| 2026-04-30 18:19 | 50.63611 | 5.44207 | 643 ft | 96 kts | 46° |
| 2026-04-30 18:20 | 50.64297 | 5.45281 | 647 ft | 180 kts | 48° |
| 2026-04-30 18:20 | 50.65245 | 5.46726 | 1793 ft | 188 kts | 49° |
| 2026-04-30 18:20 | 50.66187 | 5.48181 | 2889 ft | 194 kts | 52° |
| 2026-04-30 18:20 | 50.67129 | 5.49783 | 3559 ft | 203 kts | 54° |
| 2026-04-30 18:21 | 50.68088 | 5.51481 | 4244 ft | 211 kts | 53° |
| 2026-04-30 18:21 | 50.68772 | 5.52607 | 4647 ft | 220 kts | 51° |
| 2026-04-30 18:21 | 50.69892 | 5.54341 | 5282 ft | 231 kts | 50° |
| 2026-04-30 18:21 | 50.71197 | 5.56032 | 5953 ft | 258 kts | 36° |
| 2026-04-30 18:22 | 50.72974 | 5.56894 | 6863 ft | 280 kts | 5° |
| 2026-04-30 18:22 | 50.76317 | 5.53795 | 9084 ft | 302 kts | 299° |
| 2026-04-30 18:22 | 50.76911 | 5.50613 | 10227 ft | 304 kts | 277° |
| 2026-04-30 18:23 | 50.77196 | 5.47231 | 11005 ft | 320 kts | 276° |
| 2026-04-30 18:23 | 50.77551 | 5.43630 | 11415 ft | 344 kts | 279° |
| 2026-04-30 18:23 | 50.78008 | 5.39846 | 11789 ft | 366 kts | 281° |
| 2026-04-30 18:23 | 50.78552 | 5.35797 | 12142 ft | 386 kts | 282° |
| 2026-04-30 18:24 | 50.79765 | 5.27289 | 13356 ft | 404 kts | 282° |
| 2026-04-30 18:24 | 50.80397 | 5.22930 | 14064 ft | 410 kts | 282° |
| 2026-04-30 18:24 | 50.81036 | 5.18522 | 14730 ft | 414 kts | 282° |
| 2026-04-30 18:25 | 50.81684 | 5.14053 | 15378 ft | 419 kts | 282° |
| 2026-04-30 18:25 | 50.82992 | 5.04995 | 16793 ft | 426 kts | 282° |
| 2026-04-30 18:25 | 50.83653 | 5.00399 | 17481 ft | 429 kts | 282° |
| 2026-04-30 18:26 | 50.84983 | 4.91108 | 18715 ft | 438 kts | 282° |
| 2026-04-30 18:26 | 50.85653 | 4.86407 | 19270 ft | 442 kts | 282° |
| 2026-04-30 18:26 | 50.86332 | 4.81627 | 19824 ft | 445 kts | 282° |
| 2026-04-30 18:27 | 50.87686 | 4.72046 | 20892 ft | 451 kts | 282° |
| 2026-04-30 18:27 | 50.88370 | 4.67187 | 21462 ft | 452 kts | 282° |
| 2026-04-30 18:28 | 50.89776 | 4.57388 | 22429 ft | 460 kts | 284° |
| 2026-04-30 18:28 | 50.90861 | 4.52582 | 22843 ft | 465 kts | 294° |
| 2026-04-30 18:28 | 50.94008 | 4.43571 | 23846 ft | 469 kts | 301° |
| 2026-04-30 18:29 | 50.95725 | 4.39151 | 24180 ft | 473 kts | 302° |
| 2026-04-30 18:29 | 51.00948 | 4.25852 | 25267 ft | 479 kts | 302° |
| 2026-04-30 18:30 | 51.04440 | 4.16759 | 25896 ft | 484 kts | 301° |
| 2026-04-30 18:30 | 51.07932 | 4.07559 | 26588 ft | 487 kts | 301° |
| 2026-04-30 18:31 | 51.09682 | 4.02926 | 26864 ft | 489 kts | 301° |
| 2026-04-30 18:31 | 51.13199 | 3.93600 | 27436 ft | 493 kts | 301° |
| 2026-04-30 18:32 | 51.16724 | 3.84221 | 28159 ft | 493 kts | 301° |
| 2026-04-30 18:32 | 51.18480 | 3.79538 | 28519 ft | 492 kts | 301° |
| 2026-04-30 18:32 | 51.21994 | 3.70144 | 29296 ft | 492 kts | 301° |
| 2026-04-30 18:33 | 51.23743 | 3.65454 | 29711 ft | 491 kts | 300° |
| 2026-04-30 18:33 | 51.27220 | 3.56101 | 30229 ft | 484 kts | 300° |
| 2026-04-30 18:33 | 51.28885 | 3.51609 | 30222 ft | 468 kts | 300° |
| 2026-04-30 18:34 | 51.33776 | 3.38355 | 30232 ft | 459 kts | 299° |
| 2026-04-30 18:35 | 51.36367 | 3.29025 | 30229 ft | 458 kts | 290° |
| 2026-04-30 18:35 | 51.38664 | 3.19496 | 30227 ft | 458 kts | 289° |
| 2026-04-30 18:36 | 51.42014 | 3.05158 | 30230 ft | 458 kts | 289° |
| 2026-04-30 18:37 | 51.45353 | 2.90873 | 30231 ft | 458 kts | 289° |
| 2026-04-30 18:37 | 51.47588 | 2.81293 | 30225 ft | 459 kts | 289° |
| 2026-04-30 18:38 | 51.49822 | 2.71678 | 30226 ft | 460 kts | 289° |
| 2026-04-30 18:38 | 51.52047 | 2.62053 | 30218 ft | 460 kts | 289° |
| 2026-04-30 18:39 | 51.54266 | 2.52407 | 30221 ft | 460 kts | 289° |
| 2026-04-30 18:39 | 51.56458 | 2.42838 | 30217 ft | 458 kts | 289° |
| 2026-04-30 18:40 | 51.58646 | 2.33236 | 30220 ft | 457 kts | 288° |
| 2026-04-30 18:40 | 51.60832 | 2.23624 | 30220 ft | 457 kts | 288° |
| 2026-04-30 18:41 | 51.63011 | 2.14005 | 30216 ft | 457 kts | 288° |
| 2026-04-30 18:41 | 51.65164 | 2.04439 | 30220 ft | 457 kts | 288° |
| 2026-04-30 18:41 | 51.66244 | 1.99616 | 29905 ft | 458 kts | 288° |
| 2026-04-30 18:42 | 51.67323 | 1.94788 | 29150 ft | 454 kts | 288° |
| 2026-04-30 18:42 | 51.69427 | 1.85352 | 27921 ft | 440 kts | 288° |
| 2026-04-30 18:42 | 51.70452 | 1.80738 | 27314 ft | 434 kts | 288° |
| 2026-04-30 18:45 | 51.73076 | 1.34794 | 21348 ft | 404 kts | 261° |
| 2026-04-30 18:45 | 51.72776 | 1.30310 | 20788 ft | 400 kts | 261° |
| 2026-04-30 18:45 | 51.72481 | 1.25874 | 20214 ft | 396 kts | 261° |
| 2026-04-30 18:46 | 51.72186 | 1.21462 | 19652 ft | 392 kts | 261° |
| 2026-04-30 18:46 | 51.71894 | 1.17110 | 19092 ft | 389 kts | 261° |
| 2026-04-30 18:46 | 51.71607 | 1.12839 | 18545 ft | 385 kts | 261° |
| 2026-04-30 18:46 | 51.71318 | 1.08574 | 17939 ft | 381 kts | 261° |
| 2026-04-30 18:47 | 51.71030 | 1.04334 | 17402 ft | 379 kts | 261° |
| 2026-04-30 18:47 | 51.70742 | 1.00124 | 16851 ft | 376 kts | 261° |
| 2026-04-30 18:47 | 51.70455 | 0.95947 | 16390 ft | 374 kts | 261° |
| 2026-04-30 18:47 | 51.70167 | 0.91782 | 15957 ft | 373 kts | 261° |
| 2026-04-30 18:48 | 51.69880 | 0.87644 | 15391 ft | 370 kts | 261° |
| 2026-04-30 18:48 | 51.69593 | 0.83527 | 14923 ft | 368 kts | 261° |
| 2026-04-30 18:48 | 51.69305 | 0.79427 | 14461 ft | 366 kts | 261° |
| 2026-04-30 18:48 | 51.69018 | 0.75360 | 14003 ft | 364 kts | 261° |
| 2026-04-30 18:49 | 51.68735 | 0.71361 | 13510 ft | 362 kts | 260° |
| 2026-04-30 18:49 | 51.68450 | 0.67352 | 13044 ft | 360 kts | 260° |
| 2026-04-30 18:49 | 51.68164 | 0.63355 | 12615 ft | 357 kts | 260° |
| 2026-04-30 18:49 | 51.67879 | 0.59394 | 12179 ft | 355 kts | 260° |
| 2026-04-30 18:50 | 51.67594 | 0.55450 | 11710 ft | 353 kts | 260° |
| 2026-04-30 18:50 | 51.67314 | 0.51577 | 11429 ft | 340 kts | 260° |
| 2026-04-30 18:50 | 51.67046 | 0.47850 | 11120 ft | 329 kts | 259° |
| 2026-04-30 18:50 | 51.66785 | 0.44272 | 10916 ft | 315 kts | 259° |
| 2026-04-30 18:51 | 51.66531 | 0.40819 | 10634 ft | 305 kts | 259° |
| 2026-04-30 18:51 | 51.66279 | 0.37431 | 10177 ft | 304 kts | 259° |
| 2026-04-30 18:51 | 51.66029 | 0.34073 | 9711 ft | 301 kts | 259° |
| 2026-04-30 18:51 | 51.65779 | 0.30741 | 9245 ft | 298 kts | 259° |
| 2026-04-30 18:52 | 51.65534 | 0.27467 | 8783 ft | 297 kts | 259° |
| 2026-04-30 18:52 | 51.65286 | 0.24178 | 8322 ft | 294 kts | 260° |
| 2026-04-30 18:52 | 51.65041 | 0.20922 | 7860 ft | 292 kts | 259° |
| 2026-04-30 18:52 | 51.64800 | 0.17721 | 7518 ft | 286 kts | 259° |
| 2026-04-30 18:53 | 51.64564 | 0.14556 | 7251 ft | 284 kts | 259° |
| 2026-04-30 18:53 | 51.64325 | 0.11391 | 7198 ft | 285 kts | 259° |
| 2026-04-30 18:53 | 51.64082 | 0.08222 | 7213 ft | 285 kts | 260° |
| 2026-04-30 18:53 | 51.63836 | 0.05058 | 7201 ft | 285 kts | 260° |
| 2026-04-30 18:54 | 51.63592 | 0.01892 | 7213 ft | 285 kts | 260° |
| 2026-04-30 18:54 | 51.63345 | -0.01284 | 7243 ft | 285 kts | 259° |
| 2026-04-30 18:54 | 51.63108 | -0.04413 | 7250 ft | 285 kts | 260° |
| 2026-04-30 18:54 | 51.62863 | -0.07577 | 7254 ft | 284 kts | 259° |
| 2026-04-30 18:55 | 51.62620 | -0.10739 | 7255 ft | 285 kts | 259° |
| 2026-04-30 18:55 | 51.62127 | -0.17053 | 7259 ft | 284 kts | 259° |
| 2026-04-30 18:55 | 51.61882 | -0.20205 | 7261 ft | 284 kts | 259° |
| 2026-04-30 18:56 | 51.61395 | -0.26515 | 7270 ft | 284 kts | 259° |
| 2026-04-30 18:56 | 51.61152 | -0.29670 | 7267 ft | 284 kts | 259° |
| 2026-04-30 18:56 | 51.60911 | -0.32816 | 7182 ft | 283 kts | 259° |
| 2026-04-30 18:57 | 51.60426 | -0.39082 | 7187 ft | 284 kts | 259° |
| 2026-04-30 18:57 | 51.60184 | -0.42232 | 7181 ft | 284 kts | 259° |
| 2026-04-30 18:57 | 51.59944 | -0.45385 | 7190 ft | 284 kts | 259° |
| 2026-04-30 18:58 | 51.59454 | -0.51686 | 7183 ft | 284 kts | 259° |
| 2026-04-30 18:58 | 51.59208 | -0.54841 | 7186 ft | 283 kts | 259° |
| 2026-04-30 18:58 | 51.58961 | -0.57979 | 7182 ft | 284 kts | 259° |
| 2026-04-30 18:59 | 51.58465 | -0.64289 | 7177 ft | 284 kts | 259° |
| 2026-04-30 19:00 | 51.57721 | -0.73714 | 7183 ft | 284 kts | 259° |
| 2026-04-30 19:00 | 51.57470 | -0.76866 | 7179 ft | 284 kts | 259° |
| 2026-04-30 19:00 | 51.56965 | -0.83168 | 7186 ft | 284 kts | 259° |
| 2026-04-30 19:01 | 51.56363 | -0.89343 | 6705 ft | 269 kts | 246° |
| 2026-04-30 19:01 | 51.55384 | -0.91729 | 6472 ft | 247 kts | 218° |
| 2026-04-30 19:02 | 51.52394 | -0.93198 | 6031 ft | 219 kts | 181° |
| 2026-04-30 19:02 | 51.49426 | -0.93376 | 5424 ft | 205 kts | 181° |
| 2026-04-30 19:03 | 51.46718 | -0.92833 | 4783 ft | 198 kts | 142° |
| 2026-04-30 19:03 | 51.46430 | -0.88721 | 4214 ft | 212 kts | 70° |
| 2026-04-30 19:04 | 51.47432 | -0.84412 | 4163 ft | 198 kts | 84° |
| 2026-04-30 19:04 | 51.47636 | -0.80163 | 4009 ft | 189 kts | 95° |
| 2026-04-30 19:05 | 51.47648 | -0.75987 | 3481 ft | 182 kts | 95° |
| 2026-04-30 19:05 | 51.47664 | -0.72080 | 2968 ft | 168 kts | 95° |
| 2026-04-30 19:06 | 51.47677 | -0.68504 | 2538 ft | 151 kts | 96° |
| 2026-04-30 19:06 | 51.47680 | -0.67394 | 2415 ft | 150 kts | 95° |
| 2026-04-30 19:06 | 51.47691 | -0.64099 | 2027 ft | 146 kts | 94° |
| 2026-04-30 19:07 | 51.47704 | -0.61031 | 1661 ft | 127 kts | 94° |
| 2026-04-30 19:07 | 51.47707 | -0.59595 | 1489 ft | 130 kts | 93° |
| 2026-04-30 19:08 | 51.47719 | -0.56695 | 1125 ft | 127 kts | 91° |
| 2026-04-30 19:08 | 51.47733 | -0.53723 | 795 ft | 141 kts | 89° |
| 2026-04-30 19:08 | 51.47736 | -0.52146 | 621 ft | 139 kts | 90° |
| 2026-04-30 19:09 | 51.47748 | -0.49104 | 210 ft | 136 kts | 88° |
| 2026-04-30 19:09 | 51.47760 | -0.47673 | 96 ft | 117 kts | 90° |
| 2026-04-30 19:09 | 51.47758 | -0.46732 | 98 ft | 58 kts | 90° |
| 2026-04-30 19:10 | 51.47674 | -0.46112 | 93 ft | 19 kts | 146° |
| 2026-04-30 19:10 | 51.47514 | -0.46191 | 95 ft | 14 kts | 270° |
| 2026-04-30 19:11 | 51.47515 | -0.46352 | 95 ft | 15 kts | 270° |
| 2026-04-30 19:11 | 51.47517 | -0.46683 | 92 ft | 15 kts | 270° |
| 2026-04-30 19:11 | 51.47454 | -0.46753 | 94 ft | 12 kts | 169° |
| 2026-04-30 19:12 | 51.47370 | -0.46727 | 92 ft | 12 kts | 176° |
| 2026-04-30 19:12 | 51.47282 | -0.46723 | 92 ft | 13 kts | 180° |
| 2026-04-30 19:12 | 51.47192 | -0.46723 | 92 ft | 13 kts | 180° |
| 2026-04-30 19:13 | 51.47013 | -0.46687 | 95 ft | 13 kts | 143° |
| 2026-04-30 19:13 | 51.46861 | -0.46515 | 96 ft | 14 kts | 146° |
| 2026-04-30 19:13 | 51.46778 | -0.46430 | 94 ft | 14 kts | 155° |
| 2026-04-30 19:14 | 51.46686 | -0.46420 | 93 ft | 12 kts | 171° |
| 2026-04-30 19:14 | 51.46660 | -0.46317 | 96 ft | 10 kts | 89° |
| 2026-04-30 19:14 | 51.46661 | -0.46198 | 93 ft | 11 kts | 89° |
| 2026-04-30 19:14 | 51.46662 | -0.46075 | 94 ft | 11 kts | 90° |
| 2026-04-30 19:15 | 51.46653 | -0.45951 | 94 ft | 10 kts | 123° |
| 2026-04-30 19:15 | 51.46531 | -0.45825 | 94 ft | 11 kts | 144° |
| 2026-04-30 19:15 | 51.46468 | -0.45756 | 94 ft | 10 kts | 144° |
| 2026-04-30 19:16 | 51.46410 | -0.45691 | 96 ft | 11 kts | 144° |
| 2026-04-30 19:16 | 51.46344 | -0.45654 | 94 ft | 10 kts | 192° |
| 2026-04-30 19:16 | 51.46324 | -0.45924 | 92 ft | 25 kts | 269° |
| 2026-04-30 19:17 | 51.46323 | -0.46210 | 95 ft | 26 kts | 270° |
| 2026-04-30 19:17 | 51.46310 | -0.46601 | 93 ft | 9 kts | 215° |
| 2026-04-30 19:17 | 51.46265 | -0.46604 | 92 ft | 5 kts | 175° |
| 2026-04-30 19:18 | 51.46200 | -0.46602 | 92 ft | 0 kts | 179° |
| 2026-04-30 19:18 | 51.46195 | -0.46602 | 92 ft | 0 kts | 179° |